Etusivu
METAR-TAF:

METAR-TAF

Lentoasemat :

Pointe-Noire, Kongo

Leveyspiiri: 04-49S, Pituuspiiri: 011-54E, korkeus merenpinnasta: 17 m

Tämänhetkinen sää

Tämä raportti tehtiin 26 minuuttia sitten, kello 08.00 UTC
Tuuli 6 kn kaakosta, vaihdellen idän ja etelän/kaakon välillä
Lämpötila 24°C
Kosteus 83%
Ilmanpaine 1013 hPa
Näkyvyys: 8000 m
Hajanaisia pilviä 1000 ft:n korkeudessa
Pilvistä 2300 ft:n korkeudessa

METAR: FCPP 200800Z 13006KT 100V160 8000 SCT010 OVC023 24/21 Q1013 NOSIG

Aika: 09:26 (08:26 UTC)

Sääennuste

Tämä raportti tehtiin 3 tuntia ja 26 minuuttia sitten, kello 05.00 UTC
Ennuste voimassa 20. päivästä klo 06 UTC - 21. päivään klo 06 UTC
Tuuli 5 kn etelästä/lounaasta
Näkyvyys: 7000 m
Hajanaisia pilviä 1800 ft:n korkeudessa

TAF: FCPP 200500Z 2006/2106 20005KT 7000 SCT018

Säähavainnot ja -ennusteet yli 4000 lentoasemalta (METAR- ja TAF-raportit).

Käytössä olevat sääasemat on merkitty karttaan keltaisilla ja punaisilla pisteillä.

Aseta hiiri pisteen päälle nähdäksesi sääaseman nimen.

Klikkaa sitten nähdäksesi säähavainnot ja -ennusteet.

Kartan vaihtaminen: klikkaa mustalla rastilla varustettuja vihreitä pisteitä, niin voit zoomata sisään; viivalla varustettua vihreää pistettä, niin voit zoomata ulos tai vihreitä nuolia, niin pääset viereisille kartoille.


METAR-TAF: